M31 weather

Arnold Field
Halls, Tennessee, United States

Public forecast

Using degrees Fahrenheit for public forecast. Weather courtesy of forecast.io.

METAR (pilot weather report)

Closest report is Dyersburg Regional Airport, 5.7 nm (10.6 km) N. Retrieved 2019/05/23 12:56 UTC (21 minutes ago):

KDYR 231256Z AUTO 17006KT 10SM CLR 25/22 A3015 RMK AO2 SLP220 T02500222 PNO $

TAF (pilot weather forecast)

Closest forecast is McKellar-Sipes Regional Airport, 29.7 nm (55.0 km) SE. Retrieved 2019/05/23 12:22 UTC (55 minutes ago):

TAF KMKL 231120Z 2312/2412 18006KT P6SM SCT250 FM231500 21009KT P6SM SCT040 SCT250 FM240200 VRB03KT P6SM SKC